Time,TemperatureF,DewpointF,PressureIn,WindDirection,WindDirectionDegrees,WindSpeedMPH,WindSpeedGustMPH,Humidity,HourlyPrecipIn,Conditions,Clouds,dailyrainin,SolarRadiationWatts/m^2,SoftwareType,DateUTC
2013-03-26 00:00:00,54.7,49.0,29.52,West,266,19.6,19.6,81,0.00,-RA,,0.00,0.0,WeatherDisplay:10.37,2013-03-25 23:00:00,
2013-03-26 00:05:00,54.7,49.0,29.52,West,281,20.7,20.7,81,0.00,RA,,0.00,0.0,WeatherDisplay:10.37,2013-03-25 23:05:00,
2013-03-26 00:10:00,54.7,49.0,29.52,West,268,13.8,13.8,81,0.00,BKN,,0.00,0.0,WeatherDisplay:10.37,2013-03-25 23:10:00,
2013-03-26 00:15:00,54.6,48.9,29.52,NW,306,16.1,16.1,81,0.00,BKN,,0.00,0.0,WeatherDisplay:10.37,2013-03-25 23:15:00,
2013-03-26 00:20:00,54.5,48.5,29.52,WSW,245,16.1,16.1,80,0.00,BKN,,0.00,0.0,WeatherDisplay:10.37,2013-03-25 23:20:00,
2013-03-26 00:25:00,54.4,48.0,29.52,West,276,21.9,21.9,79,0.00,BKN,,0.00,0.0,WeatherDisplay:10.37,2013-03-25 23:25:00,
2013-03-26 00:30:00,54.4,48.4,29.52,West,275,20.7,20.7,80,0.00,BKN,,0.00,0.0,WeatherDisplay:10.37,2013-03-25 23:30:00,
2013-03-26 00:35:00,54.4,48.0,29.52,SW,234,20.7,20.7,79,0.00,BKN,,0.00,0.0,WeatherDisplay:10.37,2013-03-25 23:35:00,
2013-03-26 00:40:00,54.4,48.0,29.53,WSW,242,25.3,25.3,79,0.00,BKN,,0.00,0.0,WeatherDisplay:10.37,2013-03-25 23:40:00,
2013-03-26 00:45:00,54.4,47.7,29.53,West,261,23.0,23.0,78,0.00,BKN,,0.00,0.0,WeatherDisplay:10.37,2013-03-25 23:45:00,
2013-03-26 00:50:00,54.4,47.7,29.53,WNW,302,19.0,19.0,78,0.00,BKN,,0.00,0.0,WeatherDisplay:10.37,2013-03-25 23:50:00,
2013-03-26 00:55:00,54.3,47.6,29.53,NW,306,24.2,24.2,78,0.00,BKN,,0.00,0.0,WeatherDisplay:10.37,2013-03-25 23:55:00,
2013-03-26 01:00:00,54.3,47.2,29.53,WNW,289,21.9,21.9,77,0.00,BKN,,0.00,0.0,WeatherDisplay:10.37,2013-03-26 00:00:00,
2013-03-26 01:05:00,54.3,47.6,29.53,WSW,249,20.7,20.7,78,0.00,FEW,,0.00,0.0,WeatherDisplay:10.37,2013-03-26 00:05:00,
2013-03-26 01:10:00,54.3,47.6,29.54,WNW,300,17.3,17.3,78,0.00,FEW,,0.00,0.0,WeatherDisplay:10.37,2013-03-26 00:10:00,
2013-03-26 01:15:00,54.3,47.6,29.54,West,272,15.0,15.0,78,0.00,FEW,,0.00,0.0,WeatherDisplay:10.37,2013-03-26 00:15:00,
2013-03-26 01:20:00,54.2,47.5,29.54,West,279,18.4,18.4,78,0.00,FEW,,0.00,0.0,WeatherDisplay:10.37,2013-03-26 00:20:00,
2013-03-26 01:25:00,54.2,47.5,29.54,WNW,294,18.4,18.4,78,0.00,FEW,,0.00,0.0,WeatherDisplay:10.37,2013-03-26 00:25:00,
2013-03-26 01:30:00,54.3,47.6,29.54,West,279,13.8,13.8,78,0.00,FEW,,0.00,0.0,WeatherDisplay:10.37,2013-03-26 00:30:00,
2013-03-26 01:35:00,54.2,47.5,29.54,West,263,19.6,19.6,78,0.00,FEW,,0.00,0.0,WeatherDisplay:10.37,2013-03-26 00:35:00,
2013-03-26 01:40:00,54.1,47.4,29.54,West,263,17.3,17.3,78,0.00,FEW,,0.00,0.0,WeatherDisplay:10.37,2013-03-26 00:40:00,
2013-03-26 01:45:00,54.2,47.5,29.55,West,269,18.0,18.0,78,0.00,FEW,,0.00,0.0,WeatherDisplay:10.37,2013-03-26 00:45:00,
2013-03-26 01:50:00,54.1,47.0,29.54,NNW,331,16.1,16.1,77,0.00,BKN,,0.00,0.0,WeatherDisplay:10.37,2013-03-26 00:50:00,
2013-03-26 01:55:00,54.2,46.8,29.54,West,268,16.1,16.1,76,0.00,BKN,,0.00,0.0,WeatherDisplay:10.37,2013-03-26 00:55:00,
2013-03-26 02:00:00,54.2,46.8,29.54,WNW,290,11.5,11.5,76,0.00,BKN,,0.00,0.0,WeatherDisplay:10.37,2013-03-26 01:00:00,
2013-03-26 02:05:00,54.2,47.1,29.54,WNW,292,10.4,10.4,77,0.00,BKN,,0.00,0.0,WeatherDisplay:10.37,2013-03-26 01:05:00,
2013-03-26 02:10:00,54.2,47.1,29.54,WNW,296,11.5,11.5,77,0.00,BKN,,0.00,0.0,WeatherDisplay:10.37,2013-03-26 01:10:00,
2013-03-26 02:15:00,54.2,47.5,29.55,West,266,10.4,10.4,78,0.00,BKN,,0.00,0.0,WeatherDisplay:10.37,2013-03-26 01:15:00,
2013-03-26 02:21:00,54.2,47.5,29.54,SW,230,8.1,8.1,78,0.00,BKN,,0.00,0.0,WeatherDisplay:10.37,2013-03-26 01:21:00,
2013-03-26 02:26:00,54.2,47.8,29.54,West,280,8.1,8.1,79,0.00,BKN,,0.00,0.0,WeatherDisplay:10.37,2013-03-26 01:26:00,
2013-03-26 02:31:00,54.2,47.8,29.54,NW,313,9.2,9.2,79,0.00,BKN,,0.00,0.0,WeatherDisplay:10.37,2013-03-26 01:31:00,
2013-03-26 02:36:00,54.1,47.7,29.54,WNW,300,4.6,4.6,79,0.00,BKN,,0.00,0.0,WeatherDisplay:10.37,2013-03-26 01:36:00,
2013-03-26 02:41:00,54.2,47.8,29.54,SW,229,9.2,9.2,79,0.00,BKN,,0.00,0.0,WeatherDisplay:10.37,2013-03-26 01:41:00,
2013-03-26 02:46:00,54.2,47.8,29.54,West,269,11.5,11.5,79,0.00,BKN,,0.00,0.0,WeatherDisplay:10.37,2013-03-26 01:46:00,
2013-03-26 02:51:00,54.2,47.8,29.54,WSW,242,9.2,9.2,79,0.00,BKN,,0.00,0.0,WeatherDisplay:10.37,2013-03-26 01:51:00,
2013-03-26 02:56:00,54.2,48.2,29.54,West,260,10.4,10.4,80,0.00,BKN,,0.00,0.0,WeatherDisplay:10.37,2013-03-26 01:56:00,
2013-03-26 03:01:00,54.2,48.2,29.54,North,10,16.1,16.1,80,0.00,BKN,,0.00,0.0,WeatherDisplay:10.37,2013-03-26 02:01:00,
2013-03-26 03:06:00,54.2,47.8,29.54,WNW,293,11.5,11.5,79,0.00,BKN,,0.00,0.0,WeatherDisplay:10.37,2013-03-26 02:06:00,
2013-03-26 03:11:00,54.2,47.8,29.54,WNW,296,15.0,15.0,79,0.00,BKN,,0.00,0.0,WeatherDisplay:10.37,2013-03-26 02:11:00,
2013-03-26 03:16:00,54.2,47.8,29.54,West,281,16.1,16.1,79,0.00,BKN,,0.00,0.0,WeatherDisplay:10.37,2013-03-26 02:16:00,
2013-03-26 03:21:00,54.2,47.8,29.54,West,269,13.8,13.8,79,0.00,BKN,,0.00,0.0,WeatherDisplay:10.37,2013-03-26 02:21:00,
2013-03-26 03:26:00,54.1,47.7,29.54,West,274,11.5,11.5,79,0.00,BKN,,0.00,0.0,WeatherDisplay:10.37,2013-03-26 02:26:00,
2013-03-26 03:31:00,54.1,48.1,29.54,WNW,283,11.5,11.5,80,0.00,BKN,,0.00,0.0,WeatherDisplay:10.37,2013-03-26 02:31:00,
2013-03-26 03:36:00,54.0,48.0,29.54,West,267,13.0,13.0,80,0.00,BKN,,0.00,0.0,WeatherDisplay:10.37,2013-03-26 02:36:00,
2013-03-26 03:41:00,54.0,48.0,29.54,West,280,10.4,10.4,80,0.00,BKN,,0.00,0.0,WeatherDisplay:10.37,2013-03-26 02:41:00,
2013-03-26 03:47:00,54.0,48.0,29.54,West,279,9.2,9.2,80,0.00,BKN,,0.00,0.0,WeatherDisplay:10.37,2013-03-26 02:47:00,
2013-03-26 03:52:00,54.0,48.0,29.54,WSW,252,6.0,6.0,80,0.00,BKN,,0.00,0.0,WeatherDisplay:10.37,2013-03-26 02:52:00,
2013-03-26 03:57:00,53.9,47.9,29.54,West,274,9.2,9.2,80,0.00,BKN,,0.00,0.0,WeatherDisplay:10.37,2013-03-26 02:57:00,
2013-03-26 04:02:00,54.0,47.6,29.54,WNW,285,6.9,6.9,79,0.00,BKN,,0.00,0.0,WeatherDisplay:10.37,2013-03-26 03:02:00,
2013-03-26 04:07:00,53.9,47.9,29.54,West,277,5.0,5.0,80,0.00,BKN,,0.00,0.0,WeatherDisplay:10.37,2013-03-26 03:07:00,
2013-03-26 04:12:00,53.9,47.9,29.54,North,355,5.8,5.8,80,0.00,BKN,,0.00,0.0,WeatherDisplay:10.37,2013-03-26 03:12:00,
2013-03-26 04:17:00,53.8,47.8,29.54,NW,309,4.0,4.0,80,0.00,BKN,,0.00,0.0,WeatherDisplay:10.37,2013-03-26 03:17:00,
2013-03-26 04:22:00,53.7,47.7,29.54,West,275,7.0,7.0,80,0.00,BKN,,0.00,0.0,WeatherDisplay:10.37,2013-03-26 03:22:00,
2013-03-26 04:27:00,53.7,47.3,29.54,West,279,11.5,11.5,79,0.00,BKN,,0.00,0.0,WeatherDisplay:10.37,2013-03-26 03:27:00,
2013-03-26 04:32:00,53.7,47.3,29.54,West,277,11.0,11.0,79,0.00,BKN,,0.00,0.0,WeatherDisplay:10.37,2013-03-26 03:32:00,
2013-03-26 04:37:00,53.6,47.2,29.54,West,271,10.4,10.4,79,0.00,BKN,,0.00,0.0,WeatherDisplay:10.37,2013-03-26 03:37:00,
2013-03-26 04:42:00,53.5,47.1,29.54,WNW,295,9.2,9.2,79,0.00,BKN,,0.00,0.0,WeatherDisplay:10.37,2013-03-26 03:42:00,
2013-03-26 04:47:00,53.4,47.0,29.54,NW,314,5.0,5.0,79,0.00,BKN,,0.00,0.0,WeatherDisplay:10.37,2013-03-26 03:47:00,
2013-03-26 04:52:00,53.2,46.9,29.54,West,279,9.0,9.0,79,0.00,BKN,,0.00,0.0,WeatherDisplay:10.37,2013-03-26 03:52:00,
2013-03-26 04:57:00,53.1,46.8,29.55,West,279,7.0,7.0,79,0.00,BKN,,0.00,0.0,WeatherDisplay:10.37,2013-03-26 03:57:00,
2013-03-26 05:00:00,53.1,46.8,29.55,WNW,296,8.1,8.1,79,0.00,BKN,,0.00,0.0,WeatherDisplay:10.37,2013-03-26 04:00:00,
2013-03-26 05:05:00,52.9,46.6,29.55,NW,324,8.1,8.1,79,0.00,BKN,,0.00,0.0,WeatherDisplay:10.37,2013-03-26 04:05:00,
2013-03-26 05:10:00,52.8,46.5,29.54,NNW,328,5.0,5.0,79,0.00,BKN,,0.00,0.0,WeatherDisplay:10.37,2013-03-26 04:10:00,
2013-03-26 05:15:00,52.7,46.4,29.55,WNW,289,5.8,5.8,79,0.00,BKN,,0.00,0.0,WeatherDisplay:10.37,2013-03-26 04:15:00,
2013-03-26 05:20:00,52.6,46.6,29.55,NW,326,4.0,4.0,80,0.00,BKN,,0.00,0.0,WeatherDisplay:10.37,2013-03-26 04:20:00,
2013-03-26 05:25:00,52.5,46.5,29.55,NNW,330,3.5,3.5,80,0.00,BKN,,0.00,0.0,WeatherDisplay:10.37,2013-03-26 04:25:00,
2013-03-26 05:30:00,52.4,46.4,29.55,WNW,291,3.5,3.5,80,0.00,BKN,,0.00,0.0,WeatherDisplay:10.37,2013-03-26 04:30:00,
2013-03-26 05:35:00,52.4,46.4,29.56,WNW,296,3.5,3.5,80,0.00,BKN,,0.00,0.0,WeatherDisplay:10.37,2013-03-26 04:35:00,
2013-03-26 05:40:00,52.3,46.3,29.56,WNW,297,3.5,3.5,80,0.00,BKN,,0.00,0.0,WeatherDisplay:10.37,2013-03-26 04:40:00,
2013-03-26 05:45:00,52.3,46.3,29.56,NW,311,3.5,3.5,80,0.00,BKN,,0.00,0.0,WeatherDisplay:10.37,2013-03-26 04:45:00,
2013-03-26 05:50:00,52.3,46.3,29.56,NW,313,2.3,2.3,80,0.00,BKN,,0.00,0.0,WeatherDisplay:10.37,2013-03-26 04:50:00,
2013-03-26 05:55:00,52.4,46.4,29.56,WNW,298,4.0,4.0,80,0.00,BKN,,0.00,0.0,WeatherDisplay:10.37,2013-03-26 04:55:00,
2013-03-26 06:00:00,52.4,46.4,29.56,WNW,298,2.3,2.3,80,0.00,BKN,,0.00,0.0,WeatherDisplay:10.37,2013-03-26 05:00:00,
2013-03-26 06:05:00,52.6,46.6,29.56,NW,313,2.3,2.3,80,0.00,BKN,,0.00,0.0,WeatherDisplay:10.37,2013-03-26 05:05:00,
2013-03-26 06:10:00,52.7,46.7,29.57,NW,313,2.3,2.3,80,0.00,BKN,,0.00,0.0,WeatherDisplay:10.37,2013-03-26 05:10:00,
2013-03-26 06:15:00,52.8,46.8,29.57,NW,313,1.2,1.2,80,0.00,BKN,,0.00,0.0,WeatherDisplay:10.37,2013-03-26 05:15:00,
2013-03-26 06:20:00,52.9,46.9,29.57,NW,313,2.3,2.3,80,0.00,BKN,,0.00,5.0,WeatherDisplay:10.37,2013-03-26 05:20:00,
2013-03-26 06:25:00,53.0,47.0,29.56,NW,313,0.0,0.0,80,0.00,BKN,,0.00,21.0,WeatherDisplay:10.37,2013-03-26 05:25:00,
2013-03-26 06:30:00,53.1,47.1,29.56,NW,313,1.2,0.0,80,0.00,BKN,,0.00,35.0,WeatherDisplay:10.37,2013-03-26 05:30:00,
2013-03-26 06:35:00,53.1,47.1,29.57,WNW,299,4.0,4.0,80,0.00,BKN,,0.00,51.0,WeatherDisplay:10.37,2013-03-26 05:35:00,
2013-03-26 06:40:00,53.1,47.1,29.57,WNW,290,3.5,3.5,80,0.00,BKN,,0.00,54.0,WeatherDisplay:10.37,2013-03-26 05:40:00,
2013-03-26 06:45:00,53.2,47.2,29.57,West,273,4.6,4.6,80,0.00,BKN,,0.00,60.0,WeatherDisplay:10.37,2013-03-26 05:45:00,
2013-03-26 06:50:00,53.3,47.3,29.57,WNW,301,5.8,5.8,80,0.00,BKN,,0.00,62.0,WeatherDisplay:10.37,2013-03-26 05:50:00,
2013-03-26 06:55:00,53.4,47.7,29.57,WSW,246,4.6,4.6,81,0.00,BKN,,0.00,62.0,WeatherDisplay:10.37,2013-03-26 05:55:00,
2013-03-26 07:00:00,53.5,47.8,29.57,NW,306,5.0,5.0,81,0.00,BKN,,0.00,40.0,WeatherDisplay:10.37,2013-03-26 06:00:00,
2013-03-26 07:05:00,53.5,47.8,29.57,WNW,286,4.6,4.6,81,0.00,BKN,,0.00,37.0,WeatherDisplay:10.37,2013-03-26 06:05:00,
2013-03-26 07:10:00,53.6,47.9,29.57,WNW,294,3.5,3.5,81,0.00,BKN,,0.00,46.0,WeatherDisplay:10.37,2013-03-26 06:10:00,
2013-03-26 07:15:00,53.5,47.8,29.57,WNW,290,3.5,3.5,81,0.00,BKN,,0.00,54.0,WeatherDisplay:10.37,2013-03-26 06:15:00,
2013-03-26 07:20:00,53.7,48.0,29.57,West,281,3.5,3.5,81,0.00,BKN,,0.00,51.0,WeatherDisplay:10.37,2013-03-26 06:20:00,
2013-03-26 07:25:00,53.7,48.0,29.58,WNW,285,3.5,3.5,81,0.00,BKN,,0.00,49.0,WeatherDisplay:10.37,2013-03-26 06:25:00,
2013-03-26 07:30:00,53.8,48.1,29.58,WNW,288,3.5,3.5,81,0.00,BKN,,0.00,35.0,WeatherDisplay:10.37,2013-03-26 06:30:00,
2013-03-26 07:35:00,53.9,48.2,29.58,WNW,292,2.3,2.3,81,0.00,BKN,,0.00,28.0,WeatherDisplay:10.37,2013-03-26 06:35:00,
2013-03-26 07:40:00,54.0,48.3,29.58,WNW,284,3.5,3.5,81,0.00,BKN,,0.00,47.0,WeatherDisplay:10.37,2013-03-26 06:40:00,
2013-03-26 07:45:00,54.1,48.4,29.58,NW,312,3.5,3.5,81,0.00,BKN,,0.00,79.0,WeatherDisplay:10.37,2013-03-26 06:45:00,
2013-03-26 07:50:00,54.2,48.5,29.58,WNW,303,2.3,2.3,81,0.00,BKN,,0.00,54.0,WeatherDisplay:10.37,2013-03-26 06:50:00,
2013-03-26 07:55:00,54.4,49.0,29.58,WSW,254,3.5,3.5,82,0.00,BKN,,0.00,60.0,WeatherDisplay:10.37,2013-03-26 06:55:00,
2013-03-26 08:01:00,54.5,48.8,29.58,WSW,249,2.0,2.0,81,0.00,BKN,,0.00,76.0,WeatherDisplay:10.37,2013-03-26 07:01:00,
2013-03-26 08:06:00,54.6,48.9,29.58,West,262,1.2,1.2,81,0.00,BKN,,0.00,54.0,WeatherDisplay:10.37,2013-03-26 07:06:00,
2013-03-26 08:11:00,54.7,49.0,29.58,WSW,237,3.5,3.5,81,0.00,BKN,,0.00,58.0,WeatherDisplay:10.37,2013-03-26 07:11:00,
2013-03-26 08:16:00,54.7,49.0,29.59,SW,217,3.5,3.5,81,0.00,BKN,,0.00,44.0,WeatherDisplay:10.37,2013-03-26 07:16:00,
2013-03-26 08:21:00,54.8,49.1,29.59,SW,236,3.5,3.5,81,0.00,BKN,,0.00,30.0,WeatherDisplay:10.37,2013-03-26 07:21:00,
2013-03-26 08:26:00,54.8,49.1,29.59,WSW,256,5.0,5.0,81,0.00,BKN,,0.00,46.0,WeatherDisplay:10.37,2013-03-26 07:26:00,
2013-03-26 08:31:00,54.8,49.1,29.59,WSW,237,4.6,4.6,81,0.00,BKN,,0.00,56.0,WeatherDisplay:10.37,2013-03-26 07:31:00,
2013-03-26 08:36:00,54.6,48.9,29.59,SW,229,4.6,4.6,81,0.00,BKN,,0.00,102.0,WeatherDisplay:10.37,2013-03-26 07:36:00,
2013-03-26 08:41:00,54.6,49.2,29.59,WSW,237,4.6,4.6,82,0.00,BKN,,0.00,139.0,WeatherDisplay:10.37,2013-03-26 07:41:00,
2013-03-26 08:46:00,54.7,49.3,29.59,SW,224,4.0,4.0,82,0.00,BKN,,0.00,114.0,WeatherDisplay:10.37,2013-03-26 07:46:00,
2013-03-26 08:51:00,54.8,49.4,29.59,SW,232,4.6,4.6,82,0.00,BKN,,0.00,135.0,WeatherDisplay:10.37,2013-03-26 07:51:00,
2013-03-26 08:56:00,54.9,49.5,29.59,SW,227,5.0,5.0,82,0.00,BKN,,0.00,120.0,WeatherDisplay:10.37,2013-03-26 07:56:00,
2013-03-26 09:01:00,55.0,49.6,29.59,North,9,4.6,4.6,82,0.00,BKN,,0.00,142.0,WeatherDisplay:10.37,2013-03-26 08:01:00,
2013-03-26 09:06:00,55.1,49.7,29.59,SW,219,6.0,6.0,82,0.00,BKN,,0.00,135.0,WeatherDisplay:10.37,2013-03-26 08:06:00,
2013-03-26 09:11:00,55.1,49.7,29.59,SW,223,7.0,7.0,82,0.00,BKN,,0.00,144.0,WeatherDisplay:10.37,2013-03-26 08:11:00,
2013-03-26 09:16:00,55.0,49.9,29.59,SW,222,5.0,5.0,83,0.00,BKN,,0.00,76.0,WeatherDisplay:10.37,2013-03-26 08:16:00,
2013-03-26 09:22:00,54.9,49.8,29.59,WSW,241,6.0,6.0,83,0.00,BKN,,0.00,83.0,WeatherDisplay:10.37,2013-03-26 08:22:00,
2013-03-26 09:27:00,55.1,50.4,29.59,SSW,198,4.6,4.6,84,0.00,BKN,,0.00,241.0,WeatherDisplay:10.37,2013-03-26 08:27:00,
2013-03-26 09:32:00,55.2,50.1,29.59,SW,231,6.0,6.0,83,0.00,BKN,,0.00,202.0,WeatherDisplay:10.37,2013-03-26 08:32:00,
2013-03-26 09:37:00,55.4,50.3,29.59,SW,236,11.0,11.0,83,0.00,BKN,,0.00,209.0,WeatherDisplay:10.37,2013-03-26 08:37:00,
2013-03-26 09:42:00,55.6,49.9,29.59,WSW,251,11.5,11.5,81,0.00,BKN,,0.00,195.0,WeatherDisplay:10.37,2013-03-26 08:42:00,
2013-03-26 09:47:00,55.8,50.1,29.59,SSW,207,8.0,8.0,81,0.00,BKN,,0.00,192.0,WeatherDisplay:10.37,2013-03-26 08:47:00,
2013-03-26 09:52:00,56.0,50.3,29.59,West,273,8.1,8.1,81,0.00,BKN,,0.00,239.0,WeatherDisplay:10.37,2013-03-26 08:52:00,
2013-03-26 09:57:00,56.3,50.2,29.60,West,269,11.5,11.5,80,0.00,BKN,,0.00,439.0,WeatherDisplay:10.37,2013-03-26 08:57:00,
2013-03-26 10:02:00,56.6,50.5,29.59,WSW,240,13.0,13.0,80,0.00,BKN,,0.00,315.0,WeatherDisplay:10.37,2013-03-26 09:02:00,
2013-03-26 10:07:00,56.2,50.1,29.60,WSW,240,12.7,12.7,80,0.00,BKN,,0.00,264.0,WeatherDisplay:10.37,2013-03-26 09:07:00,
2013-03-26 10:12:00,56.1,50.3,29.59,WSW,254,11.0,11.0,81,0.00,BKN,,0.00,237.0,WeatherDisplay:10.37,2013-03-26 09:12:00,
2013-03-26 10:17:00,56.2,50.4,29.59,WSW,241,9.2,9.2,81,0.00,BKN,,0.00,288.0,WeatherDisplay:10.37,2013-03-26 09:17:00,
2013-03-26 10:22:00,56.5,50.7,29.60,WSW,246,11.5,11.5,81,0.00,BKN,,0.00,594.0,WeatherDisplay:10.37,2013-03-26 09:22:00,
2013-03-26 10:27:00,57.0,51.2,29.60,WSW,255,16.1,16.1,81,0.00,BKN,,0.00,742.0,WeatherDisplay:10.37,2013-03-26 09:27:00,
2013-03-26 10:32:00,57.4,51.6,29.59,West,259,8.1,8.1,81,0.00,BKN,,0.00,800.0,WeatherDisplay:10.37,2013-03-26 09:32:00,
2013-03-26 10:37:00,58.1,52.3,29.59,WSW,244,6.0,6.0,81,0.00,BKN,,0.00,923.0,WeatherDisplay:10.37,2013-03-26 09:37:00,
2013-03-26 10:42:00,57.7,51.6,29.60,WNW,285,15.0,15.0,80,0.00,BKN,,0.00,802.0,WeatherDisplay:10.37,2013-03-26 09:42:00,
2013-03-26 10:47:00,57.6,52.1,29.60,South,169,17.3,17.3,82,0.00,BKN,,0.00,450.0,WeatherDisplay:10.37,2013-03-26 09:47:00,
2013-03-26 10:52:00,57.7,51.2,29.59,WSW,250,16.1,16.1,79,0.00,BKN,,0.00,478.0,WeatherDisplay:10.37,2013-03-26 09:52:00,
2013-03-26 10:57:00,57.8,51.0,29.59,West,265,16.1,16.1,78,0.00,BKN,,0.00,457.0,WeatherDisplay:10.37,2013-03-26 09:57:00,
2013-03-26 11:03:00,57.8,51.0,29.59,WSW,252,17.3,17.3,78,0.00,BKN,,0.00,295.0,WeatherDisplay:10.37,2013-03-26 10:03:00,
2013-03-26 11:08:00,57.6,51.1,29.60,WSW,257,21.9,21.9,79,0.00,BKN,,0.00,325.0,WeatherDisplay:10.37,2013-03-26 10:08:00,
2013-03-26 11:13:00,57.1,51.0,29.59,WSW,257,18.4,18.4,80,0.00,BKN,,0.00,206.0,WeatherDisplay:10.37,2013-03-26 10:13:00,
2013-03-26 11:18:00,57.2,51.4,29.59,WSW,254,16.1,16.1,81,0.00,BKN,,0.00,165.0,WeatherDisplay:10.37,2013-03-26 10:18:00,
2013-03-26 11:23:00,57.4,52.3,29.59,WSW,242,11.5,11.5,83,0.00,BKN,,0.00,345.0,WeatherDisplay:10.37,2013-03-26 10:23:00,
2013-03-26 11:28:00,57.3,52.2,29.59,ESE,121,16.1,16.1,83,0.00,BKN,,0.00,283.0,WeatherDisplay:10.37,2013-03-26 10:28:00,
2013-03-26 11:33:00,57.2,51.8,29.59,SW,233,24.2,24.2,82,0.00,BKN,,0.00,473.0,WeatherDisplay:10.37,2013-03-26 10:33:00,
2013-03-26 11:38:00,57.5,52.4,29.59,SSW,192,18.4,18.4,83,0.00,BKN,,0.00,336.0,WeatherDisplay:10.37,2013-03-26 10:38:00,
2013-03-26 11:43:00,57.4,51.9,29.59,WSW,240,20.7,20.7,82,0.00,BKN,,0.00,250.0,WeatherDisplay:10.37,2013-03-26 10:43:00,
2013-03-26 11:48:00,57.5,52.4,29.59,South,185,14.0,14.0,83,0.00,BKN,,0.00,355.0,WeatherDisplay:10.37,2013-03-26 10:48:00,
2013-03-26 11:53:00,57.6,52.5,29.59,SW,236,16.1,16.1,83,0.00,BKN,,0.00,352.0,WeatherDisplay:10.37,2013-03-26 10:53:00,
2013-03-26 11:58:00,57.8,52.3,29.59,West,260,16.1,16.1,82,0.00,BKN,,0.00,295.0,WeatherDisplay:10.37,2013-03-26 10:58:00,
2013-03-26 12:03:00,57.7,52.6,29.59,WSW,240,15.0,15.0,83,0.00,BKN,,0.00,517.0,WeatherDisplay:10.37,2013-03-26 11:03:00,
2013-03-26 12:08:00,58.2,53.1,29.59,ENE,67,10.4,10.4,83,0.00,BKN,,0.00,661.0,WeatherDisplay:10.37,2013-03-26 11:08:00,
2013-03-26 12:13:00,58.7,52.9,29.59,West,270,21.0,21.0,81,0.00,BKN,,0.00,933.0,WeatherDisplay:10.37,2013-03-26 11:13:00,
2013-03-26 12:18:00,58.9,52.7,29.59,West,278,19.6,19.6,80,0.00,BKN,,0.00,888.0,WeatherDisplay:10.37,2013-03-26 11:18:00,
2013-03-26 12:23:00,59.2,52.7,29.59,West,277,18.4,18.4,79,0.00,BKN,,0.00,724.0,WeatherDisplay:10.37,2013-03-26 11:23:00,
2013-03-26 12:28:00,58.5,51.7,29.59,WSW,246,18.4,18.4,78,0.00,BKN,,0.00,610.0,WeatherDisplay:10.37,2013-03-26 11:28:00,
2013-03-26 12:33:00,58.7,52.5,29.59,WSW,254,11.5,11.5,80,0.00,BKN,,0.00,352.0,WeatherDisplay:10.37,2013-03-26 11:33:00,
2013-03-26 12:38:00,58.3,52.2,29.59,WSW,241,15.0,15.0,80,0.00,BKN,,0.00,388.0,WeatherDisplay:10.37,2013-03-26 11:38:00,
2013-03-26 12:43:00,58.1,52.3,29.59,WNW,283,16.1,16.1,81,0.00,BKN,,0.00,436.0,WeatherDisplay:10.37,2013-03-26 11:43:00,
2013-03-26 12:48:00,58.4,52.6,29.58,SW,226,11.5,11.5,81,0.00,BKN,,0.00,506.0,WeatherDisplay:10.37,2013-03-26 11:48:00,
2013-03-26 12:53:00,58.2,52.4,29.58,WSW,238,13.8,13.8,81,0.00,BKN,,0.00,387.0,WeatherDisplay:10.37,2013-03-26 11:53:00,
2013-03-26 12:58:00,58.3,52.5,29.59,SW,236,19.0,19.0,81,0.00,BKN,,0.00,315.0,WeatherDisplay:10.37,2013-03-26 11:58:00,
2013-03-26 13:03:00,57.8,52.0,29.58,WSW,254,16.1,16.1,81,0.00,BKN,,0.00,381.0,WeatherDisplay:10.37,2013-03-26 12:03:00,
2013-03-26 13:08:00,58.0,52.5,29.58,SW,236,13.8,13.8,82,0.00,BKN,,0.00,461.0,WeatherDisplay:10.37,2013-03-26 12:08:00,
2013-03-26 13:13:00,58.3,52.5,29.58,WNW,300,12.7,12.7,81,0.00,BKN,,0.00,436.0,WeatherDisplay:10.37,2013-03-26 12:13:00,
2013-03-26 13:18:00,58.2,52.4,29.58,WSW,240,14.0,14.0,81,0.00,BKN,,0.00,476.0,WeatherDisplay:10.37,2013-03-26 12:18:00,
2013-03-26 13:23:00,58.2,52.7,29.58,West,273,11.5,11.5,82,0.00,BKN,,0.00,531.0,WeatherDisplay:10.37,2013-03-26 12:23:00,
2013-03-26 13:28:00,58.1,52.6,29.58,WSW,244,15.0,15.0,82,0.00,BKN,,0.00,315.0,WeatherDisplay:10.37,2013-03-26 12:28:00,
2013-03-26 13:33:00,58.1,52.6,29.58,West,270,13.8,13.8,82,0.00,BKN,,0.00,290.0,WeatherDisplay:10.37,2013-03-26 12:33:00,
2013-03-26 13:38:00,57.6,52.1,29.58,WSW,255,18.4,18.4,82,0.00,BKN,,0.00,320.0,WeatherDisplay:10.37,2013-03-26 12:38:00,
2013-03-26 13:43:00,57.5,52.4,29.57,SSW,202,17.3,17.3,83,0.00,BKN,,0.00,272.0,WeatherDisplay:10.37,2013-03-26 12:43:00,
2013-03-26 13:48:00,57.5,52.7,29.57,SW,217,18.4,18.4,84,0.00,BKN,,0.00,234.0,WeatherDisplay:10.37,2013-03-26 12:48:00,
2013-03-26 13:53:00,57.4,52.6,29.57,WSW,255,17.3,17.3,84,0.00,BKN,,0.00,216.0,WeatherDisplay:10.37,2013-03-26 12:53:00,
2013-03-26 13:58:00,57.3,52.5,29.57,SW,234,19.6,19.6,84,0.00,BKN,,0.00,251.0,WeatherDisplay:10.37,2013-03-26 12:58:00,
2013-03-26 14:03:00,57.3,52.8,29.57,WSW,243,16.1,16.1,85,0.00,BKN,,0.00,306.0,WeatherDisplay:10.37,2013-03-26 13:03:00,
2013-03-26 14:08:00,57.5,52.7,29.57,SSE,164,19.6,19.6,84,0.00,BKN,,0.00,292.0,WeatherDisplay:10.37,2013-03-26 13:08:00,
2013-03-26 14:13:00,57.3,52.5,29.57,WSW,248,16.1,16.1,84,0.00,BKN,,0.00,278.0,WeatherDisplay:10.37,2013-03-26 13:13:00,
2013-03-26 14:18:00,57.3,52.5,29.57,WSW,244,17.0,17.0,84,0.00,BKN,,0.00,251.0,WeatherDisplay:10.37,2013-03-26 13:18:00,
2013-03-26 14:23:00,57.1,52.6,29.57,SW,233,18.4,18.4,85,0.00,BKN,,0.00,243.0,WeatherDisplay:10.37,2013-03-26 13:23:00,
2013-03-26 14:28:00,57.2,52.7,29.57,WSW,245,11.5,11.5,85,0.00,BKN,,0.00,218.0,WeatherDisplay:10.37,2013-03-26 13:28:00,
2013-03-26 14:33:00,57.0,52.2,29.57,SW,225,16.1,16.1,84,0.00,BKN,,0.00,197.0,WeatherDisplay:10.37,2013-03-26 13:33:00,
2013-03-26 14:38:00,57.0,52.2,29.57,SW,223,13.8,13.8,84,0.00,BKN,,0.00,202.0,WeatherDisplay:10.37,2013-03-26 13:38:00,
2013-03-26 14:43:00,57.0,52.2,29.56,SW,229,11.5,11.5,84,0.00,BKN,,0.00,216.0,WeatherDisplay:10.37,2013-03-26 13:43:00,
2013-03-26 14:48:00,57.0,52.2,29.56,SW,222,12.7,12.7,84,0.00,BKN,,0.00,183.0,WeatherDisplay:10.37,2013-03-26 13:48:00,
2013-03-26 14:53:00,57.0,52.2,29.56,West,272,12.0,12.0,84,0.00,BKN,,0.00,149.0,WeatherDisplay:10.37,2013-03-26 13:53:00,
2013-03-26 14:58:00,57.0,52.2,29.56,SW,218,15.0,15.0,84,0.00,BKN,,0.00,169.0,WeatherDisplay:10.37,2013-03-26 13:58:00,
2013-03-26 15:03:00,56.6,51.8,29.56,West,263,11.5,11.5,84,0.00,BKN,,0.00,181.0,WeatherDisplay:10.37,2013-03-26 14:03:00,
2013-03-26 15:08:00,56.7,52.2,29.56,West,269,11.5,11.5,85,0.00,BKN,,0.00,141.0,WeatherDisplay:10.37,2013-03-26 14:08:00,
2013-03-26 15:13:00,56.8,52.3,29.56,WSW,258,11.5,11.5,85,0.00,BKN,,0.00,137.0,WeatherDisplay:10.37,2013-03-26 14:13:00,
2013-03-26 15:18:00,56.8,52.3,29.56,SW,225,11.5,11.5,85,0.00,BKN,,0.00,128.0,WeatherDisplay:10.37,2013-03-26 14:18:00,
2013-03-26 15:23:00,56.8,52.3,29.56,WSW,249,9.0,9.0,85,0.00,-RA,,0.00,125.0,WeatherDisplay:10.37,2013-03-26 14:23:00,
2013-03-26 15:28:00,56.7,52.2,29.56,SW,221,10.4,10.4,85,0.00,-RA,,0.00,127.0,WeatherDisplay:10.37,2013-03-26 14:28:00,
2013-03-26 15:33:00,56.7,52.2,29.56,WSW,250,8.1,8.1,85,0.00,-RA,,0.00,79.0,WeatherDisplay:10.37,2013-03-26 14:33:00,
2013-03-26 15:38:00,56.6,52.1,29.56,West,260,15.0,15.0,85,0.00,-RA,,0.00,135.0,WeatherDisplay:10.37,2013-03-26 14:38:00,
2013-03-26 15:43:00,56.3,52.2,29.56,SW,217,12.7,12.7,86,0.00,-RA,,0.00,163.0,WeatherDisplay:10.37,2013-03-26 14:43:00,
2013-03-26 15:48:00,56.0,52.2,29.56,WSW,242,12.0,12.0,87,0.00,-RA,,0.00,148.0,WeatherDisplay:10.37,2013-03-26 14:48:00,
2013-03-26 15:53:00,55.8,52.0,29.56,WSW,257,16.1,16.1,87,0.00,-RA,,0.00,135.0,WeatherDisplay:10.37,2013-03-26 14:53:00,
2013-03-26 15:58:00,55.6,51.5,29.56,WNW,287,11.5,11.5,86,0.00,-RA,,0.00,107.0,WeatherDisplay:10.37,2013-03-26 14:58:00,
2013-03-26 16:03:00,55.7,51.9,29.56,SW,236,9.2,9.2,87,0.00,-RA,,0.00,74.0,WeatherDisplay:10.37,2013-03-26 15:03:00,
2013-03-26 16:08:00,55.6,51.2,29.56,WSW,247,11.5,11.5,85,0.01,-RA,,0.01,65.0,WeatherDisplay:10.37,2013-03-26 15:08:00,
2013-03-26 16:13:00,55.3,51.2,29.56,West,271,9.2,9.2,86,0.01,-RA,,0.01,58.0,WeatherDisplay:10.37,2013-03-26 15:13:00,
2013-03-26 16:18:00,55.1,50.7,29.55,West,265,8.1,8.1,85,0.01,-RA,,0.01,74.0,WeatherDisplay:10.37,2013-03-26 15:18:00,
2013-03-26 16:23:00,55.1,51.0,29.55,SW,235,5.8,5.8,86,0.02,-RA,,0.02,58.0,WeatherDisplay:10.37,2013-03-26 15:23:00,
2013-03-26 16:29:00,55.1,51.0,29.55,WSW,257,8.1,8.1,86,0.02,-RA,,0.02,60.0,WeatherDisplay:10.37,2013-03-26 15:29:00,
2013-03-26 16:34:00,55.1,51.3,29.55,SW,230,5.0,5.0,87,0.02,-RA,,0.02,62.0,WeatherDisplay:10.37,2013-03-26 15:34:00,
2013-03-26 16:39:00,54.9,50.8,29.55,WSW,242,10.4,10.4,86,0.02,-RA,,0.02,37.0,WeatherDisplay:10.37,2013-03-26 15:39:00,
2013-03-26 16:44:00,54.2,49.5,29.55,West,263,6.0,6.0,84,0.02,-RA,,0.02,40.0,WeatherDisplay:10.37,2013-03-26 15:44:00,
2013-03-26 16:49:00,54.1,48.7,29.55,West,270,4.6,4.6,82,0.02,-RA,,0.02,32.0,WeatherDisplay:10.37,2013-03-26 15:49:00,
2013-03-26 16:54:00,54.2,48.8,29.56,WSW,246,3.5,3.5,82,0.02,-RA,,0.02,30.0,WeatherDisplay:10.37,2013-03-26 15:54:00,
2013-03-26 16:59:00,54.1,48.7,29.56,WSW,258,6.9,6.9,82,0.03,-RA,,0.03,21.0,WeatherDisplay:10.37,2013-03-26 15:59:00,
2013-03-26 17:04:00,53.9,48.9,29.56,West,272,8.1,8.1,83,0.03,-RA,,0.03,28.0,WeatherDisplay:10.37,2013-03-26 16:04:00,
2013-03-26 17:09:00,53.9,49.5,29.56,SW,235,4.6,4.6,85,0.02,-RA,,0.03,18.0,WeatherDisplay:10.37,2013-03-26 16:09:00,
2013-03-26 17:14:00,53.4,48.7,29.56,SW,229,9.2,9.2,84,0.02,-RA,,0.03,14.0,WeatherDisplay:10.37,2013-03-26 16:14:00,
2013-03-26 17:19:00,53.1,48.4,29.56,WSW,242,6.9,6.9,84,0.02,-RA,,0.03,16.0,WeatherDisplay:10.37,2013-03-26 16:19:00,
2013-03-26 17:24:00,53.0,48.6,29.56,SW,234,5.8,5.8,85,0.02,-RA,,0.03,21.0,WeatherDisplay:10.37,2013-03-26 16:24:00,
2013-03-26 17:29:00,52.8,48.4,29.56,West,263,7.0,7.0,85,0.02,-RA,,0.03,19.0,WeatherDisplay:10.37,2013-03-26 16:29:00,
2013-03-26 17:34:00,52.6,48.2,29.56,SW,230,4.6,4.6,85,0.02,-RA,,0.03,14.0,WeatherDisplay:10.37,2013-03-26 16:34:00,
2013-03-26 17:39:00,52.5,48.4,29.56,West,272,4.6,4.6,86,0.02,-RA,,0.03,7.0,WeatherDisplay:10.37,2013-03-26 16:39:00,
2013-03-26 17:44:00,52.3,48.2,29.56,West,267,4.6,4.6,86,0.02,-RA,,0.03,9.0,WeatherDisplay:10.37,2013-03-26 16:44:00,
2013-03-26 17:49:00,52.4,48.6,29.56,West,278,4.6,4.6,87,0.02,-RA,,0.03,0.0,WeatherDisplay:10.37,2013-03-26 16:49:00,
2013-03-26 17:54:00,52.3,48.5,29.56,WNW,299,4.6,4.6,87,0.02,-RA,,0.04,0.0,WeatherDisplay:10.37,2013-03-26 16:54:00,
2013-03-26 17:59:00,52.2,48.8,29.56,SW,236,3.5,3.5,88,0.01,-RA,,0.04,0.0,WeatherDisplay:10.37,2013-03-26 16:59:00,
2013-03-26 18:04:00,52.2,48.8,29.56,WNW,292,5.8,5.8,88,0.02,-RA,,0.05,0.0,WeatherDisplay:10.37,2013-03-26 17:04:00,
2013-03-26 18:09:00,52.0,48.6,29.56,NW,319,7.0,7.0,88,0.02,-RA,,0.05,0.0,WeatherDisplay:10.37,2013-03-26 17:09:00,
2013-03-26 18:14:00,51.9,48.8,29.56,NNW,331,5.0,5.0,89,0.02,BKN,,0.05,0.0,WeatherDisplay:10.37,2013-03-26 17:14:00,
2013-03-26 18:19:00,51.7,48.6,29.56,NNW,339,1.2,1.2,89,0.02,BKN,,0.05,0.0,WeatherDisplay:10.37,2013-03-26 17:19:00,
2013-03-26 18:24:00,51.9,48.8,29.56,NNW,339,1.2,1.2,89,0.02,RA,,0.06,0.0,WeatherDisplay:10.37,2013-03-26 17:24:00,
2013-03-26 18:29:00,51.9,49.1,29.56,NW,313,2.3,2.3,90,0.03,RA,,0.06,0.0,WeatherDisplay:10.37,2013-03-26 17:29:00,
2013-03-26 18:34:00,51.7,48.6,29.56,WNW,288,3.5,3.5,89,0.03,RA,,0.06,0.0,WeatherDisplay:10.37,2013-03-26 17:34:00,
2013-03-26 18:39:00,51.8,49.0,29.56,NW,314,3.5,3.5,90,0.03,BKN,,0.07,0.0,WeatherDisplay:10.37,2013-03-26 17:39:00,
2013-03-26 18:44:00,51.8,49.0,29.56,NW,314,4.6,4.6,90,0.04,-RA,,0.07,0.0,WeatherDisplay:10.37,2013-03-26 17:44:00,
2013-03-26 18:49:00,51.8,49.0,29.56,NW,321,4.0,4.0,90,0.04,-RA,,0.07,0.0,WeatherDisplay:10.37,2013-03-26 17:49:00,
2013-03-26 18:54:00,51.8,49.3,29.56,ESE,119,2.3,2.3,91,0.03,-RA,,0.07,0.0,WeatherDisplay:10.37,2013-03-26 17:54:00,
2013-03-26 18:59:00,51.9,49.4,29.56,NW,306,3.5,3.5,91,0.03,-RA,,0.07,0.0,WeatherDisplay:10.37,2013-03-26 17:59:00,
2013-03-26 19:04:00,52.0,49.5,29.56,North,355,3.0,3.0,91,0.02,-RA,,0.07,0.0,WeatherDisplay:10.37,2013-03-26 18:04:00,
2013-03-26 19:09:00,52.0,49.5,29.57,NW,317,3.5,3.5,91,0.02,-RA,,0.07,0.0,WeatherDisplay:10.37,2013-03-26 18:09:00,
2013-03-26 19:14:00,52.0,49.5,29.57,WNW,301,3.0,3.0,91,0.02,-RA,,0.07,0.0,WeatherDisplay:10.37,2013-03-26 18:14:00,
2013-03-26 19:19:00,52.1,49.6,29.57,WSW,240,3.5,3.5,91,0.02,-RA,,0.07,0.0,WeatherDisplay:10.37,2013-03-26 18:19:00,
2013-03-26 19:24:00,52.2,49.7,29.57,West,274,3.5,3.5,91,0.02,BKN,,0.07,0.0,WeatherDisplay:10.37,2013-03-26 18:24:00,
2013-03-26 19:29:00,52.3,49.8,29.57,WNW,283,3.5,3.5,91,0.01,BKN,,0.07,0.0,WeatherDisplay:10.37,2013-03-26 18:29:00,
2013-03-26 19:34:00,52.5,49.9,29.57,WNW,283,2.3,2.3,91,0.01,BKN,,0.07,0.0,WeatherDisplay:10.37,2013-03-26 18:34:00,
2013-03-26 19:39:00,52.5,49.7,29.57,WNW,283,0.0,0.0,90,0.01,BKN,,0.07,0.0,WeatherDisplay:10.37,2013-03-26 18:39:00,
2013-03-26 19:44:00,52.4,49.6,29.57,WNW,283,0.0,0.0,90,0.00,BKN,,0.07,0.0,WeatherDisplay:10.37,2013-03-26 18:44:00,
2013-03-26 19:49:00,52.5,49.9,29.57,WNW,283,3.0,3.0,91,0.00,BKN,,0.07,0.0,WeatherDisplay:10.37,2013-03-26 18:49:00,
2013-03-26 19:54:00,52.6,50.0,29.58,WNW,283,0.0,0.0,91,0.00,BKN,,0.07,0.0,WeatherDisplay:10.37,2013-03-26 18:54:00,
2013-03-26 19:59:00,52.6,49.8,29.57,WNW,283,0.0,0.0,90,0.00,BKN,,0.07,0.0,WeatherDisplay:10.37,2013-03-26 18:59:00,
2013-03-26 20:04:00,52.5,49.7,29.58,WNW,283,0.0,0.0,90,0.00,BKN,,0.07,0.0,WeatherDisplay:10.37,2013-03-26 19:04:00,
2013-03-26 20:09:00,52.5,49.7,29.58,WNW,282,1.2,1.2,90,0.00,BKN,,0.07,0.0,WeatherDisplay:10.37,2013-03-26 19:09:00,
2013-03-26 20:14:00,52.4,49.6,29.58,North,355,2.3,2.3,90,0.00,BKN,,0.07,0.0,WeatherDisplay:10.37,2013-03-26 19:14:00,
2013-03-26 20:19:00,52.3,49.8,29.58,NE,49,1.2,0.0,91,0.00,BKN,,0.07,0.0,WeatherDisplay:10.37,2013-03-26 19:19:00,
2013-03-26 20:24:00,52.2,49.7,29.58,SW,228,1.2,1.2,91,0.00,BKN,,0.07,0.0,WeatherDisplay:10.37,2013-03-26 19:24:00,
2013-03-26 20:29:00,52.4,49.8,29.58,ENE,74,2.3,2.3,91,0.00,BKN,,0.07,0.0,WeatherDisplay:10.37,2013-03-26 19:29:00,
2013-03-26 20:34:00,52.5,49.9,29.58,SSW,213,0.0,0.0,91,0.00,BKN,,0.07,0.0,WeatherDisplay:10.37,2013-03-26 19:34:00,
2013-03-26 20:39:00,52.4,49.8,29.58,SSW,213,0.0,0.0,91,0.00,BKN,,0.07,0.0,WeatherDisplay:10.37,2013-03-26 19:39:00,
2013-03-26 20:44:00,52.4,49.8,29.58,ESE,110,2.3,2.3,91,0.00,BKN,,0.07,0.0,WeatherDisplay:10.37,2013-03-26 19:44:00,
2013-03-26 20:49:00,52.3,49.8,29.58,ESE,110,0.0,0.0,91,0.00,BKN,,0.07,0.0,WeatherDisplay:10.37,2013-03-26 19:49:00,
2013-03-26 20:54:00,52.5,50.2,29.58,South,169,1.2,0.0,92,0.00,BKN,,0.07,0.0,WeatherDisplay:10.37,2013-03-26 19:54:00,
2013-03-26 20:59:00,52.6,50.0,29.58,South,169,0.0,0.0,91,0.00,BKN,,0.07,0.0,WeatherDisplay:10.37,2013-03-26 19:59:00,
2013-03-26 21:04:00,52.8,50.2,29.59,South,180,1.2,1.2,91,0.00,BKN,,0.07,0.0,WeatherDisplay:10.37,2013-03-26 20:04:00,
2013-03-26 21:09:00,52.8,50.2,29.59,SW,228,2.0,2.0,91,0.00,BKN,,0.07,0.0,WeatherDisplay:10.37,2013-03-26 20:09:00,
2013-03-26 21:14:00,52.9,50.3,29.59,WSW,255,2.3,0.0,91,0.00,BKN,,0.07,0.0,WeatherDisplay:10.37,2013-03-26 20:14:00,
2013-03-26 21:19:00,52.9,50.3,29.59,WSW,255,3.5,3.5,91,0.00,BKN,,0.07,0.0,WeatherDisplay:10.37,2013-03-26 20:19:00,
2013-03-26 21:24:00,52.9,50.3,29.59,WSW,246,4.6,4.6,91,0.00,BKN,,0.07,0.0,WeatherDisplay:10.37,2013-03-26 20:24:00,
2013-03-26 21:29:00,52.8,50.2,29.59,SSE,163,4.0,4.0,91,0.00,BKN,,0.07,0.0,WeatherDisplay:10.37,2013-03-26 20:29:00,
2013-03-26 21:34:00,52.5,49.9,29.59,SSE,165,3.5,3.5,91,0.00,BKN,,0.07,0.0,WeatherDisplay:10.37,2013-03-26 20:34:00,
2013-03-26 21:39:00,52.4,49.8,29.59,SSW,198,3.5,3.5,91,0.00,BKN,,0.07,0.0,WeatherDisplay:10.37,2013-03-26 20:39:00,
2013-03-26 21:44:00,52.3,49.8,29.59,SW,236,3.5,3.5,91,0.00,BKN,,0.07,0.0,WeatherDisplay:10.37,2013-03-26 20:44:00,
2013-03-26 21:49:00,52.4,49.8,29.59,SSW,202,0.0,0.2,91,0.00,BKN,,0.07,0.0,WeatherDisplay:10.37,2013-03-26 20:49:00,
2013-03-26 21:54:00,52.3,49.8,29.59,South,188,0.0,0.0,91,0.00,SCT,,0.07,0.0,WeatherDisplay:10.37,2013-03-26 20:54:00,
2013-03-26 21:59:00,52.4,49.8,29.59,South,188,1.2,1.2,91,0.00,SCT,,0.07,0.0,WeatherDisplay:10.37,2013-03-26 20:59:00,
2013-03-26 22:04:00,52.5,49.9,29.59,South,188,0.0,0.0,91,0.00,SCT,,0.07,0.0,WeatherDisplay:10.37,2013-03-26 21:04:00,
2013-03-26 22:09:00,52.6,50.0,29.59,SSW,200,2.0,4.0,91,0.00,SCT,,0.07,0.0,WeatherDisplay:10.37,2013-03-26 21:09:00,
2013-03-26 22:14:00,52.7,50.2,29.60,SW,221,1.0,3.0,91,0.00,SCT,,0.07,0.0,WeatherDisplay:10.37,2013-03-26 21:14:00,
2013-03-26 22:19:00,52.8,49.9,29.60,SSW,198,0.0,3.0,90,0.00,SCT,,0.07,0.0,WeatherDisplay:10.37,2013-03-26 21:19:00,
2013-03-26 22:24:00,53.0,50.1,29.60,SW,231,5.0,5.0,90,0.00,SCT,,0.07,0.0,WeatherDisplay:10.37,2013-03-26 21:24:00,
2013-03-26 22:29:00,53.2,50.3,29.60,WSW,246,7.0,7.0,90,0.00,SCT,,0.07,0.0,WeatherDisplay:10.37,2013-03-26 21:29:00,
2013-03-26 22:34:00,53.6,50.8,29.60,WSW,240,6.0,10.0,90,0.00,SCT,,0.07,0.0,WeatherDisplay:10.37,2013-03-26 21:34:00,
2013-03-26 22:39:00,54.1,50.9,29.60,WSW,247,6.9,6.9,89,0.00,SCT,,0.07,0.0,WeatherDisplay:10.37,2013-03-26 21:39:00,
2013-03-26 22:44:00,54.3,50.8,29.60,SW,234,5.0,12.0,88,0.00,BKN,,0.07,0.0,WeatherDisplay:10.37,2013-03-26 21:44:00,
2013-03-26 22:49:00,54.5,51.0,29.60,WSW,242,11.5,11.5,88,0.00,BKN,,0.07,0.0,WeatherDisplay:10.37,2013-03-26 21:49:00,
2013-03-26 22:54:00,54.5,51.0,29.60,WSW,244,7.0,13.0,88,0.00,BKN,,0.07,0.0,WeatherDisplay:10.37,2013-03-26 21:54:00,
2013-03-26 22:59:00,54.5,51.0,29.60,SW,236,10.4,10.4,88,0.00,BKN,,0.07,0.0,WeatherDisplay:10.37,2013-03-26 21:59:00,
2013-03-26 23:04:00,54.5,51.0,29.60,WSW,241,5.0,12.0,88,0.00,BKN,,0.07,0.0,WeatherDisplay:10.37,2013-03-26 22:04:00,
2013-03-26 23:09:00,54.5,51.0,29.60,West,270,15.0,15.0,88,0.00,BKN,,0.07,0.0,WeatherDisplay:10.37,2013-03-26 22:09:00,
2013-03-26 23:14:00,54.6,51.1,29.60,WSW,247,7.0,13.0,88,0.00,BKN,,0.07,0.0,WeatherDisplay:10.37,2013-03-26 22:14:00,
2013-03-26 23:19:00,54.6,51.1,29.60,WSW,238,5.0,12.0,88,0.00,BKN,,0.07,0.0,WeatherDisplay:10.37,2013-03-26 22:19:00,
2013-03-26 23:24:00,54.6,51.1,29.60,WSW,243,11.5,11.5,88,0.00,BKN,,0.07,0.0,WeatherDisplay:10.37,2013-03-26 22:24:00,
2013-03-26 23:29:00,54.6,51.1,29.60,WSW,242,12.7,12.7,88,0.00,BKN,,0.07,0.0,WeatherDisplay:10.37,2013-03-26 22:29:00,
2013-03-26 23:34:00,54.5,51.0,29.61,SW,234,8.0,12.0,88,0.00,BKN,,0.07,0.0,WeatherDisplay:10.37,2013-03-26 22:34:00,
2013-03-26 23:39:00,54.5,51.0,29.60,WSW,239,7.0,12.0,88,0.00,BKN,,0.07,0.0,WeatherDisplay:10.37,2013-03-26 22:39:00,
2013-03-26 23:44:00,54.4,50.6,29.60,WSW,240,8.0,14.0,87,0.00,BKN,,0.07,0.0,WeatherDisplay:10.37,2013-03-26 22:44:00,
2013-03-26 23:49:00,54.5,50.7,29.60,SW,214,9.0,9.0,87,0.00,BKN,,0.07,0.0,WeatherDisplay:10.37,2013-03-26 22:49:00,
2013-03-26 23:54:00,54.5,50.7,29.61,WSW,255,9.0,14.0,87,0.00,BKN,,0.07,0.0,WeatherDisplay:10.37,2013-03-26 22:54:00,
2013-03-26 23:59:00,54.5,50.7,29.61,WSW,246,11.5,11.5,87,0.00,BKN,,0.07,0.0,WeatherDisplay:10.37,2013-03-26 22:59:00,